sensor_id;sensor_type;location;lat;lon;timestamp;temperature;humidity
488;DHT22;16586;48.976;9.584;2023-02-17T00:01:23;8.30;57.10
488;DHT22;16586;48.976;9.584;2023-02-17T00:03:51;8.30;57.00
488;DHT22;16586;48.976;9.584;2023-02-17T00:06:20;8.80;57.50
488;DHT22;16586;48.976;9.584;2023-02-17T00:08:48;9.10;57.70
488;DHT22;16586;48.976;9.584;2023-02-17T00:11:15;8.40;56.70
488;DHT22;16586;48.976;9.584;2023-02-17T00:13:42;8.60;57.00
488;DHT22;16586;48.976;9.584;2023-02-17T00:16:12;8.30;56.60
488;DHT22;16586;48.976;9.584;2023-02-17T00:18:38;8.30;56.80
488;DHT22;16586;48.976;9.584;2023-02-17T00:21:13;8.40;56.80
488;DHT22;16586;48.976;9.584;2023-02-17T00:23:41;8.40;56.30
488;DHT22;16586;48.976;9.584;2023-02-17T00:26:08;8.40;56.70
488;DHT22;16586;48.976;9.584;2023-02-17T00:28:35;9.20;57.30
488;DHT22;16586;48.976;9.584;2023-02-17T00:31:05;8.30;56.50
488;DHT22;16586;48.976;9.584;2023-02-17T00:33:34;8.40;56.60
488;DHT22;16586;48.976;9.584;2023-02-17T00:36:05;8.90;57.10
488;DHT22;16586;48.976;9.584;2023-02-17T00:38:34;8.50;56.80
488;DHT22;16586;48.976;9.584;2023-02-17T00:41:01;8.50;56.40
488;DHT22;16586;48.976;9.584;2023-02-17T00:43:27;8.60;56.50
488;DHT22;16586;48.976;9.584;2023-02-17T00:45:54;8.60;56.20
488;DHT22;16586;48.976;9.584;2023-02-17T00:48:21;8.60;56.10
488;DHT22;16586;48.976;9.584;2023-02-17T00:50:50;8.60;56.00
488;DHT22;16586;48.976;9.584;2023-02-17T00:53:16;8.60;56.00
488;DHT22;16586;48.976;9.584;2023-02-17T00:55:43;8.60;55.90
488;DHT22;16586;48.976;9.584;2023-02-17T00:58:10;8.60;56.10
488;DHT22;16586;48.976;9.584;2023-02-17T01:00:37;8.90;56.20
488;DHT22;16586;48.976;9.584;2023-02-17T01:03:03;8.70;55.80
488;DHT22;16586;48.976;9.584;2023-02-17T01:05:30;8.80;55.70
488;DHT22;16586;48.976;9.584;2023-02-17T01:07:59;8.80;55.80
488;DHT22;16586;48.976;9.584;2023-02-17T01:10:25;8.80;55.80
488;DHT22;16586;48.976;9.584;2023-02-17T01:12:52;8.80;55.50
488;DHT22;16586;48.976;9.584;2023-02-17T01:15:19;8.80;55.50
488;DHT22;16586;48.976;9.584;2023-02-17T01:17:46;9.70;56.70
488;DHT22;16586;48.976;9.584;2023-02-17T01:20:13;8.90;55.40
488;DHT22;16586;48.976;9.584;2023-02-17T01:22:40;8.90;55.60
488;DHT22;16586;48.976;9.584;2023-02-17T01:25:08;8.90;55.20
488;DHT22;16586;48.976;9.584;2023-02-17T01:27:35;9.70;56.00
488;DHT22;16586;48.976;9.584;2023-02-17T01:30:02;9.00;55.10
488;DHT22;16586;48.976;9.584;2023-02-17T01:32:29;9.20;55.30
488;DHT22;16586;48.976;9.584;2023-02-17T01:34:56;9.00;55.10
488;DHT22;16586;48.976;9.584;2023-02-17T01:37:23;9.10;55.30
488;DHT22;16586;48.976;9.584;2023-02-17T01:39:49;9.00;54.70
488;DHT22;16586;48.976;9.584;2023-02-17T01:42:18;9.10;55.20
488;DHT22;16586;48.976;9.584;2023-02-17T01:45:27;9.00;55.10
488;DHT22;16586;48.976;9.584;2023-02-17T01:47:58;9.10;54.60
488;DHT22;16586;48.976;9.584;2023-02-17T01:50:31;9.00;54.40
488;DHT22;16586;48.976;9.584;2023-02-17T01:53:00;9.10;54.30
488;DHT22;16586;48.976;9.584;2023-02-17T01:55:28;9.10;54.40
488;DHT22;16586;48.976;9.584;2023-02-17T01:57:57;9.10;54.30
488;DHT22;16586;48.976;9.584;2023-02-17T02:00:28;9.20;54.90
488;DHT22;16586;48.976;9.584;2023-02-17T02:02:58;9.30;54.60
488;DHT22;16586;48.976;9.584;2023-02-17T02:05:28;9.10;54.20
488;DHT22;16586;48.976;9.584;2023-02-17T02:07:55;9.20;54.30
488;DHT22;16586;48.976;9.584;2023-02-17T02:10:22;9.20;54.10
488;DHT22;16586;48.976;9.584;2023-02-17T02:12:49;9.20;54.00
488;DHT22;16586;48.976;9.584;2023-02-17T02:15:19;9.30;54.00
488;DHT22;16586;48.976;9.584;2023-02-17T02:17:58;9.20;53.60
488;DHT22;16586;48.976;9.584;2023-02-17T02:20:41;9.30;53.60
488;DHT22;16586;48.976;9.584;2023-02-17T02:26:32;9.30;53.50
488;DHT22;16586;48.976;9.584;2023-02-17T02:29:29;9.30;53.40
488;DHT22;16586;48.976;9.584;2023-02-17T02:32:18;9.30;53.30
488;DHT22;16586;48.976;9.584;2023-02-17T02:34:49;9.40;53.30
488;DHT22;16586;48.976;9.584;2023-02-17T02:37:21;9.20;53.30
488;DHT22;16586;48.976;9.584;2023-02-17T02:39:51;9.40;53.20
488;DHT22;16586;48.976;9.584;2023-02-17T02:42:22;9.40;53.20
488;DHT22;16586;48.976;9.584;2023-02-17T02:44:49;9.30;53.00
488;DHT22;16586;48.976;9.584;2023-02-17T02:47:42;9.40;52.60
488;DHT22;16586;48.976;9.584;2023-02-17T02:50:12;9.30;52.40
488;DHT22;16586;48.976;9.584;2023-02-17T02:55:41;9.30;52.20
488;DHT22;16586;48.976;9.584;2023-02-17T02:58:15;9.40;52.30
488;DHT22;16586;48.976;9.584;2023-02-17T03:00:49;9.30;52.00
488;DHT22;16586;48.976;9.584;2023-02-17T03:03:25;9.40;52.10
488;DHT22;16586;48.976;9.584;2023-02-17T03:05:57;9.30;52.00
488;DHT22;16586;48.976;9.584;2023-02-17T03:08:30;9.40;52.30
488;DHT22;16586;48.976;9.584;2023-02-17T03:10:57;9.60;52.30
488;DHT22;16586;48.976;9.584;2023-02-17T03:13:24;9.40;51.90
488;DHT22;16586;48.976;9.584;2023-02-17T03:15:50;9.60;52.30
488;DHT22;16586;48.976;9.584;2023-02-17T03:18:18;9.50;51.80
488;DHT22;16586;48.976;9.584;2023-02-17T03:20:50;9.50;51.30
488;DHT22;16586;48.976;9.584;2023-02-17T03:23:17;9.50;51.50
488;DHT22;16586;48.976;9.584;2023-02-17T03:25:45;9.50;51.50
488;DHT22;16586;48.976;9.584;2023-02-17T03:28:12;9.50;51.20
488;DHT22;16586;48.976;9.584;2023-02-17T03:30:39;9.60;51.40
488;DHT22;16586;48.976;9.584;2023-02-17T03:33:05;9.60;51.40
488;DHT22;16586;48.976;9.584;2023-02-17T03:35:32;9.70;51.60
488;DHT22;16586;48.976;9.584;2023-02-17T03:38:00;9.70;50.20
488;DHT22;16586;48.976;9.584;2023-02-17T03:40:27;9.80;50.50
488;DHT22;16586;48.976;9.584;2023-02-17T03:42:55;9.80;50.40
488;DHT22;16586;48.976;9.584;2023-02-17T03:45:22;9.90;50.40
488;DHT22;16586;48.976;9.584;2023-02-17T03:47:48;10.00;48.10
488;DHT22;16586;48.976;9.584;2023-02-17T03:50:15;10.10;48.20
488;DHT22;16586;48.976;9.584;2023-02-17T03:52:42;10.10;48.30
488;DHT22;16586;48.976;9.584;2023-02-17T03:55:10;10.20;48.20
488;DHT22;16586;48.976;9.584;2023-02-17T03:57:37;10.30;47.40
488;DHT22;16586;48.976;9.584;2023-02-17T04:00:05;10.40;47.10
488;DHT22;16586;48.976;9.584;2023-02-17T04:02:32;10.40;47.00
488;DHT22;16586;48.976;9.584;2023-02-17T04:04:59;10.40;45.90
488;DHT22;16586;48.976;9.584;2023-02-17T04:07:25;10.20;46.00
488;DHT22;16586;48.976;9.584;2023-02-17T04:09:52;10.50;46.10
488;DHT22;16586;48.976;9.584;2023-02-17T04:12:20;10.40;45.10
488;DHT22;16586;48.976;9.584;2023-02-17T04:14:47;10.40;44.90
488;DHT22;16586;48.976;9.584;2023-02-17T04:17:14;10.50;44.70
488;DHT22;16586;48.976;9.584;2023-02-17T04:19:41;10.60;44.60
488;DHT22;16586;48.976;9.584;2023-02-17T04:22:07;10.70;44.40
488;DHT22;16586;48.976;9.584;2023-02-17T04:24:34;10.80;43.50
488;DHT22;16586;48.976;9.584;2023-02-17T04:27:01;10.80;43.40
488;DHT22;16586;48.976;9.584;2023-02-17T04:29:30;10.90;43.50
488;DHT22;16586;48.976;9.584;2023-02-17T04:31:57;10.90;43.50
488;DHT22;16586;48.976;9.584;2023-02-17T04:34:24;10.90;42.90
488;DHT22;16586;48.976;9.584;2023-02-17T04:36:51;10.90;43.00
488;DHT22;16586;48.976;9.584;2023-02-17T04:39:18;10.90;42.70
488;DHT22;16586;48.976;9.584;2023-02-17T04:41:44;11.00;43.10
488;DHT22;16586;48.976;9.584;2023-02-17T04:44:11;10.90;42.90
488;DHT22;16586;48.976;9.584;2023-02-17T04:46:39;11.00;42.80
488;DHT22;16586;48.976;9.584;2023-02-17T04:49:06;11.00;43.10
488;DHT22;16586;48.976;9.584;2023-02-17T04:51:33;11.10;43.30
488;DHT22;16586;48.976;9.584;2023-02-17T04:53:59;11.10;42.90
488;DHT22;16586;48.976;9.584;2023-02-17T04:56:26;11.10;43.20
488;DHT22;16586;48.976;9.584;2023-02-17T04:58:53;11.20;43.10
488;DHT22;16586;48.976;9.584;2023-02-17T05:01:20;11.20;42.20
488;DHT22;16586;48.976;9.584;2023-02-17T05:03:48;11.30;41.70
488;DHT22;16586;48.976;9.584;2023-02-17T05:06:14;11.40;42.00
488;DHT22;16586;48.976;9.584;2023-02-17T05:08:41;11.40;42.20
488;DHT22;16586;48.976;9.584;2023-02-17T05:11:08;11.40;41.80
488;DHT22;16586;48.976;9.584;2023-02-17T05:13:35;11.40;41.50
488;DHT22;16586;48.976;9.584;2023-02-17T05:16:01;11.40;42.10
488;DHT22;16586;48.976;9.584;2023-02-17T05:18:28;11.40;42.30
488;DHT22;16586;48.976;9.584;2023-02-17T05:20:56;11.40;42.50
488;DHT22;16586;48.976;9.584;2023-02-17T05:23:23;11.40;42.50
488;DHT22;16586;48.976;9.584;2023-02-17T05:25:50;11.40;42.30
488;DHT22;16586;48.976;9.584;2023-02-17T05:28:16;11.40;42.20
488;DHT22;16586;48.976;9.584;2023-02-17T05:30:43;11.40;42.60
488;DHT22;16586;48.976;9.584;2023-02-17T05:33:10;11.40;42.90
488;DHT22;16586;48.976;9.584;2023-02-17T05:35:37;11.40;42.40
488;DHT22;16586;48.976;9.584;2023-02-17T05:38:05;11.40;42.80
488;DHT22;16586;48.976;9.584;2023-02-17T05:40:32;11.50;42.70
488;DHT22;16586;48.976;9.584;2023-02-17T05:42:59;11.50;42.20
488;DHT22;16586;48.976;9.584;2023-02-17T05:45:25;11.60;42.10
488;DHT22;16586;48.976;9.584;2023-02-17T05:47:52;11.60;42.10
488;DHT22;16586;48.976;9.584;2023-02-17T05:50:19;11.60;42.00
488;DHT22;16586;48.976;9.584;2023-02-17T05:52:46;11.60;42.20
488;DHT22;16586;48.976;9.584;2023-02-17T05:55:14;11.50;42.30
488;DHT22;16586;48.976;9.584;2023-02-17T05:57:41;11.60;42.30
488;DHT22;16586;48.976;9.584;2023-02-17T06:00:08;11.60;42.30
488;DHT22;16586;48.976;9.584;2023-02-17T06:02:35;11.60;42.40
488;DHT22;16586;48.976;9.584;2023-02-17T06:05:02;11.60;42.10
488;DHT22;16586;48.976;9.584;2023-02-17T06:07:29;11.60;42.10
488;DHT22;16586;48.976;9.584;2023-02-17T06:09:55;11.60;42.30
488;DHT22;16586;48.976;9.584;2023-02-17T06:12:24;11.60;42.50
488;DHT22;16586;48.976;9.584;2023-02-17T06:14:51;11.60;43.00
488;DHT22;16586;48.976;9.584;2023-02-17T06:17:26;11.60;42.50
488;DHT22;16586;48.976;9.584;2023-02-17T06:19:52;11.70;42.50
488;DHT22;16586;48.976;9.584;2023-02-17T06:22:19;11.70;42.20
488;DHT22;16586;48.976;9.584;2023-02-17T06:24:46;11.70;42.10
488;DHT22;16586;48.976;9.584;2023-02-17T06:27:13;11.70;42.30
488;DHT22;16586;48.976;9.584;2023-02-17T06:29:41;11.70;42.40
488;DHT22;16586;48.976;9.584;2023-02-17T06:32:09;11.60;43.50
488;DHT22;16586;48.976;9.584;2023-02-17T06:34:36;11.60;43.00
488;DHT22;16586;48.976;9.584;2023-02-17T06:37:02;11.60;43.50
488;DHT22;16586;48.976;9.584;2023-02-17T06:39:29;11.60;43.70
488;DHT22;16586;48.976;9.584;2023-02-17T06:41:56;11.60;43.60
488;DHT22;16586;48.976;9.584;2023-02-17T06:44:23;11.60;43.50
488;DHT22;16586;48.976;9.584;2023-02-17T06:46:51;11.60;43.30
488;DHT22;16586;48.976;9.584;2023-02-17T06:49:17;11.60;43.30
488;DHT22;16586;48.976;9.584;2023-02-17T06:51:44;11.50;43.30
488;DHT22;16586;48.976;9.584;2023-02-17T06:54:11;11.50;43.50
488;DHT22;16586;48.976;9.584;2023-02-17T06:56:38;11.60;43.40
488;DHT22;16586;48.976;9.584;2023-02-17T06:59:04;11.60;43.30
488;DHT22;16586;48.976;9.584;2023-02-17T07:01:31;11.60;43.40
488;DHT22;16586;48.976;9.584;2023-02-17T07:03:59;11.60;43.60
488;DHT22;16586;48.976;9.584;2023-02-17T07:06:26;11.70;43.50
488;DHT22;16586;48.976;9.584;2023-02-17T07:08:53;11.70;43.70
488;DHT22;16586;48.976;9.584;2023-02-17T07:11:20;11.60;43.80
488;DHT22;16586;48.976;9.584;2023-02-17T07:13:47;11.60;44.00
488;DHT22;16586;48.976;9.584;2023-02-17T07:16:14;11.60;44.20
488;DHT22;16586;48.976;9.584;2023-02-17T07:18:41;11.60;44.70
488;DHT22;16586;48.976;9.584;2023-02-17T07:21:10;11.70;44.60
488;DHT22;16586;48.976;9.584;2023-02-17T07:23:36;11.70;44.80
488;DHT22;16586;48.976;9.584;2023-02-17T07:26:05;11.70;45.10
488;DHT22;16586;48.976;9.584;2023-02-17T07:28:33;11.70;45.30
488;DHT22;16586;48.976;9.584;2023-02-17T07:31:04;11.70;45.40
488;DHT22;16586;48.976;9.584;2023-02-17T07:33:32;11.70;45.70
488;DHT22;16586;48.976;9.584;2023-02-17T07:35:58;11.70;45.80
488;DHT22;16586;48.976;9.584;2023-02-17T07:38:26;11.80;46.30
488;DHT22;16586;48.976;9.584;2023-02-17T07:40:53;11.70;46.50
488;DHT22;16586;48.976;9.584;2023-02-17T07:43:20;11.70;46.70
488;DHT22;16586;48.976;9.584;2023-02-17T07:45:47;11.80;47.00
488;DHT22;16586;48.976;9.584;2023-02-17T07:48:13;11.80;46.50
488;DHT22;16586;48.976;9.584;2023-02-17T07:50:40;11.80;46.60
488;DHT22;16586;48.976;9.584;2023-02-17T07:53:07;11.80;46.70
488;DHT22;16586;48.976;9.584;2023-02-17T07:55:35;11.80;46.60
488;DHT22;16586;48.976;9.584;2023-02-17T07:58:02;11.90;46.80
488;DHT22;16586;48.976;9.584;2023-02-17T08:00:28;11.90;46.60
488;DHT22;16586;48.976;9.584;2023-02-17T08:02:55;11.90;46.70
488;DHT22;16586;48.976;9.584;2023-02-17T08:05:22;11.90;46.80
488;DHT22;16586;48.976;9.584;2023-02-17T08:07:49;11.90;47.00
488;DHT22;16586;48.976;9.584;2023-02-17T08:10:37;11.90;47.00
488;DHT22;16586;48.976;9.584;2023-02-17T08:13:22;12.00;47.20
488;DHT22;16586;48.976;9.584;2023-02-17T08:15:49;12.00;47.20
488;DHT22;16586;48.976;9.584;2023-02-17T08:18:15;12.00;47.20
488;DHT22;16586;48.976;9.584;2023-02-17T08:20:42;12.00;47.10
488;DHT22;16586;48.976;9.584;2023-02-17T08:23:09;12.00;47.10
488;DHT22;16586;48.976;9.584;2023-02-17T08:25:37;12.00;47.30
488;DHT22;16586;48.976;9.584;2023-02-17T08:28:04;12.10;47.30
488;DHT22;16586;48.976;9.584;2023-02-17T08:30:34;12.10;47.20
488;DHT22;16586;48.976;9.584;2023-02-17T08:33:03;12.10;47.60
488;DHT22;16586;48.976;9.584;2023-02-17T08:35:29;12.20;47.10
488;DHT22;16586;48.976;9.584;2023-02-17T08:37:56;12.30;47.30
488;DHT22;16586;48.976;9.584;2023-02-17T08:40:23;12.30;47.10
488;DHT22;16586;48.976;9.584;2023-02-17T08:42:51;12.40;47.30
488;DHT22;16586;48.976;9.584;2023-02-17T08:45:18;12.50;47.10
488;DHT22;16586;48.976;9.584;2023-02-17T08:47:45;12.60;46.60
488;DHT22;16586;48.976;9.584;2023-02-17T08:50:15;12.50;46.60
488;DHT22;16586;48.976;9.584;2023-02-17T08:52:44;12.50;46.70
488;DHT22;16586;48.976;9.584;2023-02-17T08:55:11;12.50;46.80
488;DHT22;16586;48.976;9.584;2023-02-17T08:57:38;12.50;47.00
488;DHT22;16586;48.976;9.584;2023-02-17T09:00:07;12.50;47.20
488;DHT22;16586;48.976;9.584;2023-02-17T09:02:34;12.60;47.00
488;DHT22;16586;48.976;9.584;2023-02-17T09:05:02;12.60;46.70
488;DHT22;16586;48.976;9.584;2023-02-17T09:07:29;12.50;46.80
488;DHT22;16586;48.976;9.584;2023-02-17T09:09:56;12.50;47.50
488;DHT22;16586;48.976;9.584;2023-02-17T09:12:23;12.50;47.70
488;DHT22;16586;48.976;9.584;2023-02-17T09:14:49;12.50;47.60
488;DHT22;16586;48.976;9.584;2023-02-17T09:17:18;12.60;47.50
488;DHT22;16586;48.976;9.584;2023-02-17T09:19:44;12.50;47.50
488;DHT22;16586;48.976;9.584;2023-02-17T09:22:11;12.60;48.10
488;DHT22;16586;48.976;9.584;2023-02-17T09:24:39;12.50;47.90
488;DHT22;16586;48.976;9.584;2023-02-17T09:27:06;12.60;47.80
488;DHT22;16586;48.976;9.584;2023-02-17T09:29:33;12.50;48.00
488;DHT22;16586;48.976;9.584;2023-02-17T09:31:59;12.50;48.60
488;DHT22;16586;48.976;9.584;2023-02-17T09:34:28;12.50;49.00
488;DHT22;16586;48.976;9.584;2023-02-17T09:36:55;12.50;49.80
488;DHT22;16586;48.976;9.584;2023-02-17T09:39:22;12.60;50.70
488;DHT22;16586;48.976;9.584;2023-02-17T09:41:50;12.60;50.70
488;DHT22;16586;48.976;9.584;2023-02-17T09:44:21;12.60;51.20
488;DHT22;16586;48.976;9.584;2023-02-17T09:46:55;12.60;51.20
488;DHT22;16586;48.976;9.584;2023-02-17T09:49:25;12.70;51.30
488;DHT22;16586;48.976;9.584;2023-02-17T09:52:00;12.70;51.00
488;DHT22;16586;48.976;9.584;2023-02-17T09:54:31;12.80;50.90
488;DHT22;16586;48.976;9.584;2023-02-17T09:57:02;12.90;50.60
488;DHT22;16586;48.976;9.584;2023-02-17T09:59:37;12.90;50.30
488;DHT22;16586;48.976;9.584;2023-02-17T10:02:06;12.90;50.40
488;DHT22;16586;48.976;9.584;2023-02-17T10:04:39;13.00;50.20
488;DHT22;16586;48.976;9.584;2023-02-17T10:07:11;13.10;50.30
488;DHT22;16586;48.976;9.584;2023-02-17T10:09:47;13.20;49.30
488;DHT22;16586;48.976;9.584;2023-02-17T10:12:17;13.40;49.10
488;DHT22;16586;48.976;9.584;2023-02-17T10:14:48;13.50;49.40
488;DHT22;16586;48.976;9.584;2023-02-17T10:17:21;13.60;49.30
488;DHT22;16586;48.976;9.584;2023-02-17T10:19:52;13.60;48.60
488;DHT22;16586;48.976;9.584;2023-02-17T10:22:22;13.60;48.60
488;DHT22;16586;48.976;9.584;2023-02-17T10:24:50;13.60;48.50
488;DHT22;16586;48.976;9.584;2023-02-17T10:27:27;13.60;48.00
488;DHT22;16586;48.976;9.584;2023-02-17T10:30:07;13.60;47.90
488;DHT22;16586;48.976;9.584;2023-02-17T10:32:49;13.60;48.20
488;DHT22;16586;48.976;9.584;2023-02-17T10:35:22;13.70;48.40
488;DHT22;16586;48.976;9.584;2023-02-17T10:37:56;13.70;48.20
488;DHT22;16586;48.976;9.584;2023-02-17T10:40:26;13.80;48.50
488;DHT22;16586;48.976;9.584;2023-02-17T10:42:55;13.90;48.50
488;DHT22;16586;48.976;9.584;2023-02-17T10:45:27;14.20;48.10
488;DHT22;16586;48.976;9.584;2023-02-17T10:48:01;14.40;47.50
488;DHT22;16586;48.976;9.584;2023-02-17T10:50:29;14.50;46.60
488;DHT22;16586;48.976;9.584;2023-02-17T10:52:58;14.60;46.30
488;DHT22;16586;48.976;9.584;2023-02-17T10:55:32;14.70;46.40
488;DHT22;16586;48.976;9.584;2023-02-17T10:58:04;14.70;46.40
488;DHT22;16586;48.976;9.584;2023-02-17T11:00:32;14.70;46.30
488;DHT22;16586;48.976;9.584;2023-02-17T11:02:59;14.70;46.50
488;DHT22;16586;48.976;9.584;2023-02-17T11:05:28;14.70;47.30
488;DHT22;16586;48.976;9.584;2023-02-17T11:07:59;14.80;47.60
488;DHT22;16586;48.976;9.584;2023-02-17T11:10:32;14.90;48.40
488;DHT22;16586;48.976;9.584;2023-02-17T11:13:03;14.90;48.60
488;DHT22;16586;48.976;9.584;2023-02-17T11:15:42;14.90;48.50
488;DHT22;16586;48.976;9.584;2023-02-17T11:18:17;14.90;49.80
488;DHT22;16586;48.976;9.584;2023-02-17T11:20:46;14.90;50.60
488;DHT22;16586;48.976;9.584;2023-02-17T11:23:22;14.70;52.20
488;DHT22;16586;48.976;9.584;2023-02-17T11:25:59;14.50;53.50
488;DHT22;16586;48.976;9.584;2023-02-17T11:28:26;14.20;52.60
488;DHT22;16586;48.976;9.584;2023-02-17T11:30:55;14.00;54.20
488;DHT22;16586;48.976;9.584;2023-02-17T11:33:30;13.90;54.70
488;DHT22;16586;48.976;9.584;2023-02-17T11:35:57;14.00;55.80
488;DHT22;16586;48.976;9.584;2023-02-17T11:38:27;13.90;55.30
488;DHT22;16586;48.976;9.584;2023-02-17T11:40:57;13.80;55.40
488;DHT22;16586;48.976;9.584;2023-02-17T11:43:25;13.70;56.00
488;DHT22;16586;48.976;9.584;2023-02-17T11:46:17;13.70;56.60
488;DHT22;16586;48.976;9.584;2023-02-17T11:49:10;13.80;57.10
488;DHT22;16586;48.976;9.584;2023-02-17T11:51:52;13.80;57.10
488;DHT22;16586;48.976;9.584;2023-02-17T11:54:28;13.70;57.20
488;DHT22;16586;48.976;9.584;2023-02-17T11:57:09;13.90;57.30
488;DHT22;16586;48.976;9.584;2023-02-17T11:59:50;13.50;56.90
488;DHT22;16586;48.976;9.584;2023-02-17T12:02:36;13.30;57.90
488;DHT22;16586;48.976;9.584;2023-02-17T12:05:14;13.30;58.60
488;DHT22;16586;48.976;9.584;2023-02-17T12:07:55;13.30;58.60
488;DHT22;16586;48.976;9.584;2023-02-17T12:10:40;13.40;58.70
488;DHT22;16586;48.976;9.584;2023-02-17T12:13:25;13.30;58.70
488;DHT22;16586;48.976;9.584;2023-02-17T12:16:09;13.30;59.00
488;DHT22;16586;48.976;9.584;2023-02-17T12:18:50;13.30;59.20
488;DHT22;16586;48.976;9.584;2023-02-17T12:21:31;13.40;59.00
488;DHT22;16586;48.976;9.584;2023-02-17T12:24:12;13.30;58.90
488;DHT22;16586;48.976;9.584;2023-02-17T12:26:46;13.30;59.30
488;DHT22;16586;48.976;9.584;2023-02-17T12:29:27;13.30;59.00
488;DHT22;16586;48.976;9.584;2023-02-17T12:32:05;13.10;59.20
488;DHT22;16586;48.976;9.584;2023-02-17T12:34:41;13.10;59.50
488;DHT22;16586;48.976;9.584;2023-02-17T12:39:48;13.20;60.40
488;DHT22;16586;48.976;9.584;2023-02-17T12:42:21;13.20;61.60
488;DHT22;16586;48.976;9.584;2023-02-17T12:44:56;13.30;61.00
488;DHT22;16586;48.976;9.584;2023-02-17T12:47:28;13.40;60.40
488;DHT22;16586;48.976;9.584;2023-02-17T12:50:00;13.30;60.70
488;DHT22;16586;48.976;9.584;2023-02-17T12:52:31;13.40;61.10
488;DHT22;16586;48.976;9.584;2023-02-17T12:55:03;13.40;60.40
488;DHT22;16586;48.976;9.584;2023-02-17T12:57:41;13.30;60.00
488;DHT22;16586;48.976;9.584;2023-02-17T13:00:16;13.30;60.80
488;DHT22;16586;48.976;9.584;2023-02-17T13:02:45;13.40;60.80
488;DHT22;16586;48.976;9.584;2023-02-17T13:05:20;13.50;61.60
488;DHT22;16586;48.976;9.584;2023-02-17T13:07:52;13.40;59.90
488;DHT22;16586;48.976;9.584;2023-02-17T13:10:31;13.40;60.60
488;DHT22;16586;48.976;9.584;2023-02-17T13:13:02;13.40;60.70
488;DHT22;16586;48.976;9.584;2023-02-17T13:15:35;13.60;61.20
488;DHT22;16586;48.976;9.584;2023-02-17T13:18:05;13.70;60.60
488;DHT22;16586;48.976;9.584;2023-02-17T13:20:51;13.70;60.80
488;DHT22;16586;48.976;9.584;2023-02-17T13:23:36;13.80;60.40
488;DHT22;16586;48.976;9.584;2023-02-17T13:26:28;13.90;60.20
488;DHT22;16586;48.976;9.584;2023-02-17T13:29:20;14.00;59.50
488;DHT22;16586;48.976;9.584;2023-02-17T13:32:00;14.10;58.80
488;DHT22;16586;48.976;9.584;2023-02-17T13:34:31;14.00;58.80
488;DHT22;16586;48.976;9.584;2023-02-17T13:36:59;14.00;58.50
488;DHT22;16586;48.976;9.584;2023-02-17T13:39:34;14.00;58.50
488;DHT22;16586;48.976;9.584;2023-02-17T13:42:01;14.00;58.50
488;DHT22;16586;48.976;9.584;2023-02-17T13:44:30;14.10;58.70
488;DHT22;16586;48.976;9.584;2023-02-17T13:47:00;14.00;58.40
488;DHT22;16586;48.976;9.584;2023-02-17T13:49:30;14.10;58.40
488;DHT22;16586;48.976;9.584;2023-02-17T13:52:14;14.10;57.50
488;DHT22;16586;48.976;9.584;2023-02-17T13:54:50;14.10;57.30
488;DHT22;16586;48.976;9.584;2023-02-17T13:57:25;14.10;56.80
488;DHT22;16586;48.976;9.584;2023-02-17T14:00:04;14.10;57.50
488;DHT22;16586;48.976;9.584;2023-02-17T14:02:31;14.30;57.00
488;DHT22;16586;48.976;9.584;2023-02-17T14:04:59;14.30;57.60
488;DHT22;16586;48.976;9.584;2023-02-17T14:07:33;14.50;56.90
488;DHT22;16586;48.976;9.584;2023-02-17T14:10:00;14.60;56.10
488;DHT22;16586;48.976;9.584;2023-02-17T14:12:27;14.70;55.80
488;DHT22;16586;48.976;9.584;2023-02-17T14:14:55;14.80;55.10
488;DHT22;16586;48.976;9.584;2023-02-17T14:17:28;14.80;55.00
488;DHT22;16586;48.976;9.584;2023-02-17T14:19:57;14.80;55.00
488;DHT22;16586;48.976;9.584;2023-02-17T14:22:28;14.80;55.20
488;DHT22;16586;48.976;9.584;2023-02-17T14:25:00;14.80;55.20
488;DHT22;16586;48.976;9.584;2023-02-17T14:27:27;14.70;54.80
488;DHT22;16586;48.976;9.584;2023-02-17T14:29:56;14.70;55.10
488;DHT22;16586;48.976;9.584;2023-02-17T14:32:28;14.70;55.70
488;DHT22;16586;48.976;9.584;2023-02-17T14:35:14;14.70;54.80
488;DHT22;16586;48.976;9.584;2023-02-17T14:37:44;14.70;54.80
488;DHT22;16586;48.976;9.584;2023-02-17T14:40:15;14.70;55.00
488;DHT22;16586;48.976;9.584;2023-02-17T14:42:42;14.60;54.70
488;DHT22;16586;48.976;9.584;2023-02-17T14:45:10;14.70;54.90
488;DHT22;16586;48.976;9.584;2023-02-17T14:47:37;14.60;54.80
488;DHT22;16586;48.976;9.584;2023-02-17T14:50:04;14.70;55.00
488;DHT22;16586;48.976;9.584;2023-02-17T14:52:40;14.70;54.30
488;DHT22;16586;48.976;9.584;2023-02-17T14:55:12;14.60;54.70
488;DHT22;16586;48.976;9.584;2023-02-17T14:57:41;14.60;54.70
488;DHT22;16586;48.976;9.584;2023-02-17T15:00:13;14.60;54.90
488;DHT22;16586;48.976;9.584;2023-02-17T15:02:40;14.60;54.80
488;DHT22;16586;48.976;9.584;2023-02-17T15:05:07;14.70;55.00
488;DHT22;16586;48.976;9.584;2023-02-17T15:07:34;14.70;54.80
488;DHT22;16586;48.976;9.584;2023-02-17T15:10:01;14.70;54.60
488;DHT22;16586;48.976;9.584;2023-02-17T15:12:28;14.80;54.30
488;DHT22;16586;48.976;9.584;2023-02-17T15:14:54;14.70;54.00
488;DHT22;16586;48.976;9.584;2023-02-17T15:17:22;14.80;54.50
488;DHT22;16586;48.976;9.584;2023-02-17T15:19:49;14.70;54.40
488;DHT22;16586;48.976;9.584;2023-02-17T15:22:16;14.70;54.00
488;DHT22;16586;48.976;9.584;2023-02-17T15:24:43;14.70;54.30
488;DHT22;16586;48.976;9.584;2023-02-17T15:27:11;14.70;54.60
488;DHT22;16586;48.976;9.584;2023-02-17T15:29:39;14.80;54.70
488;DHT22;16586;48.976;9.584;2023-02-17T15:32:11;14.80;54.10
488;DHT22;16586;48.976;9.584;2023-02-17T15:34:41;14.80;54.60
488;DHT22;16586;48.976;9.584;2023-02-17T15:37:09;14.90;54.20
488;DHT22;16586;48.976;9.584;2023-02-17T15:39:35;14.80;54.50
488;DHT22;16586;48.976;9.584;2023-02-17T15:42:04;14.80;54.30
488;DHT22;16586;48.976;9.584;2023-02-17T15:44:37;14.80;54.80
488;DHT22;16586;48.976;9.584;2023-02-17T15:47:07;14.80;55.00
488;DHT22;16586;48.976;9.584;2023-02-17T15:49:37;14.80;54.90
488;DHT22;16586;48.976;9.584;2023-02-17T15:52:08;14.80;54.90
488;DHT22;16586;48.976;9.584;2023-02-17T15:54:39;14.80;54.90
488;DHT22;16586;48.976;9.584;2023-02-17T15:57:06;14.80;54.90
488;DHT22;16586;48.976;9.584;2023-02-17T15:59:34;14.80;54.90
488;DHT22;16586;48.976;9.584;2023-02-17T16:02:04;14.80;53.80
488;DHT22;16586;48.976;9.584;2023-02-17T16:04:36;14.80;53.50
488;DHT22;16586;48.976;9.584;2023-02-17T16:07:05;14.80;53.60
488;DHT22;16586;48.976;9.584;2023-02-17T16:09:31;14.60;53.70
488;DHT22;16586;48.976;9.584;2023-02-17T16:12:00;14.60;53.80
488;DHT22;16586;48.976;9.584;2023-02-17T16:14:32;14.60;53.60
488;DHT22;16586;48.976;9.584;2023-02-17T16:16:59;14.60;53.50
488;DHT22;16586;48.976;9.584;2023-02-17T16:19:26;14.50;53.30
488;DHT22;16586;48.976;9.584;2023-02-17T16:21:53;14.40;53.10
488;DHT22;16586;48.976;9.584;2023-02-17T16:24:22;14.40;53.00
488;DHT22;16586;48.976;9.584;2023-02-17T16:26:48;14.30;53.30
488;DHT22;16586;48.976;9.584;2023-02-17T16:29:16;14.40;53.50
488;DHT22;16586;48.976;9.584;2023-02-17T16:31:43;14.30;53.30